Time;durP1;ratioP1;P1;durP2;ratioP2;P2;SDS_P1;SDS_P2;PMS_P1;PMS_P2;Temp;Humidity;BMP_temperature;BMP_pressure;BME280_temperature;BME280_humidity;BME280_pressure;Samples;Min_cycle;Max_cycle;Signal;HPM_P1;HPM_P2
2023/05/25 04:02:02;;;;;;;3.17;2.07;;;13.10;66.60;;;;;;5459421;22;20509;-77
2023/05/25 04:04:28;;;;;;;3.23;2.40;;;13.10;66.40;;;;;;5035745;28;20541;-77
2023/05/25 04:06:55;;;;;;;3.63;2.10;;;13.20;66.80;;;;;;5035696;28;20447;-77
2023/05/25 04:09:22;;;;;;;3.23;2.20;;;13.20;66.90;;;;;;5035939;28;20467;-77
2023/05/25 04:11:48;;;;;;;4.80;2.23;;;13.20;66.50;;;;;;5035596;28;20525;-77
2023/05/25 04:14:15;;;;;;;6.07;2.33;;;13.20;66.20;;;;;;5035582;28;20494;-76
2023/05/25 04:16:43;;;;;;;3.27;2.13;;;13.20;66.40;;;;;;5035782;28;20810;-76
2023/05/25 04:19:11;;;;;;;7.33;2.10;;;13.20;66.60;;;;;;5035472;28;20455;-77
2023/05/25 04:21:38;;;;;;;3.10;2.23;;;13.20;66.40;;;;;;5035047;28;20471;-76
2023/05/25 04:24:06;;;;;;;5.63;3.07;;;13.20;66.50;;;;;;5035325;28;20521;-77
2023/05/25 04:26:33;;;;;;;3.90;1.80;;;13.10;66.60;;;;;;5035609;28;20443;-77
2023/05/25 04:29:00;;;;;;;3.47;2.50;;;13.20;66.70;;;;;;5035870;28;20502;-77
2023/05/25 04:31:27;;;;;;;2.77;1.90;;;13.20;67.00;;;;;;5034882;28;20972;-77
2023/05/25 04:33:54;;;;;;;6.83;2.60;;;13.20;66.80;;;;;;5035163;28;20493;-77
2023/05/25 04:36:24;;;;;;;3.73;2.40;;;13.10;67.40;;;;;;5035192;28;20474;-76
2023/05/25 04:38:53;;;;;;;3.73;2.40;;;13.00;67.30;;;;;;5035070;28;20443;-76
2023/05/25 04:41:20;;;;;;;4.47;2.27;;;13.00;67.60;;;;;;5034995;28;20567;-76
2023/05/25 04:43:46;;;;;;;3.77;2.67;;;13.00;67.90;;;;;;5034930;28;20529;-77
2023/05/25 04:46:15;;;;;;;3.73;2.20;;;13.00;68.10;;;;;;5034903;28;20474;-76
2023/05/25 04:48:42;;;;;;;5.10;2.10;;;13.20;67.40;;;;;;5034953;28;20454;-76
2023/05/25 04:51:09;;;;;;;4.17;2.40;;;13.20;67.30;;;;;;5035282;28;20542;-77
2023/05/25 04:53:37;;;;;;;3.97;2.47;;;13.20;67.30;;;;;;5034993;28;20455;-77
2023/05/25 04:56:04;;;;;;;4.20;2.30;;;13.20;67.00;;;;;;5034915;28;20513;-77
2023/05/25 04:58:31;;;;;;;8.00;2.70;;;13.20;67.20;;;;;;5034990;28;20502;-77
2023/05/25 05:01:01;;;;;;;4.43;2.50;;;13.30;67.20;;;;;;5034747;28;21058;-77
2023/05/25 05:03:28;;;;;;;4.80;2.43;;;13.30;67.30;;;;;;5036394;28;20459;-77
2023/05/25 05:05:55;;;;;;;3.50;2.67;;;13.30;67.80;;;;;;5034783;28;20459;-77
2023/05/25 05:08:22;;;;;;;3.33;2.20;;;13.30;67.80;;;;;;5034970;28;20448;-77
2023/05/25 05:10:50;;;;;;;2.80;2.20;;;13.50;67.20;;;;;;5034484;28;20817;-77
2023/05/25 05:13:17;;;;;;;3.70;2.47;;;13.60;66.80;;;;;;5034772;28;20455;-77
2023/05/25 05:15:46;;;;;;;5.20;2.70;;;13.50;66.90;;;;;;5034473;28;20534;-79
2023/05/25 05:18:13;;;;;;;5.23;2.40;;;13.50;67.20;;;;;;5035201;28;20463;-77
2023/05/25 05:20:39;;;;;;;2.87;2.13;;;13.50;69.90;;;;;;5034394;28;20525;-76
2023/05/25 05:23:06;;;;;;;4.97;2.63;;;13.50;67.90;;;;;;5034185;28;20937;-79
2023/05/25 05:25:33;;;;;;;3.90;2.20;;;13.50;67.80;;;;;;5034611;28;20479;-79
2023/05/25 05:28:01;;;;;;;4.73;2.70;;;13.60;67.60;;;;;;5034444;28;20447;-79
2023/05/25 05:30:28;;;;;;;3.20;2.47;;;13.80;67.00;;;;;;5034295;28;20493;-78
2023/05/25 05:32:54;;;;;;;4.00;2.03;;;13.80;67.30;;;;;;5034261;28;20493;-79
2023/05/25 05:35:21;;;;;;;3.90;2.70;;;13.80;68.00;;;;;;5034210;28;20439;-79
2023/05/25 05:37:48;;;;;;;3.10;2.27;;;13.90;67.70;;;;;;5034141;28;20501;-79
2023/05/25 05:40:15;;;;;;;4.80;2.40;;;14.10;67.10;;;;;;5034060;28;20448;-79
2023/05/25 05:42:42;;;;;;;6.13;3.30;;;14.10;67.40;;;;;;5034325;28;20497;-79
2023/05/25 05:45:10;;;;;;;4.50;2.43;;;14.30;66.40;;;;;;5034121;28;20575;-78
2023/05/25 05:47:37;;;;;;;3.83;2.57;;;14.30;66.40;;;;;;5034188;28;20444;-78
2023/05/25 05:50:05;;;;;;;4.90;2.50;;;14.40;66.90;;;;;;5034090;28;20447;-78
2023/05/25 05:52:32;;;;;;;3.90;2.70;;;14.40;65.60;;;;;;5034229;28;20472;-79
2023/05/25 05:54:58;;;;;;;3.83;2.90;;;14.60;66.30;;;;;;5034054;28;20444;-78
2023/05/25 05:57:25;;;;;;;4.97;2.70;;;14.70;65.60;;;;;;5034313;28;20505;-79
2023/05/25 05:59:51;;;;;;;5.80;2.50;;;15.00;64.80;;;;;;5034058;28;20447;-79
2023/05/25 06:02:19;;;;;;;2.97;2.07;;;15.30;64.70;;;;;;5033516;28;20510;-78
2023/05/25 06:04:46;;;;;;;3.03;2.37;;;15.30;64.10;;;;;;5034559;28;20487;-77
2023/05/25 06:07:13;;;;;;;3.50;2.40;;;15.40;63.40;;;;;;5033629;28;20491;-78
2023/05/25 06:09:40;;;;;;;4.47;3.00;;;15.50;63.50;;;;;;5032862;28;20933;-78
2023/05/25 06:12:07;;;;;;;3.50;2.60;;;15.60;63.70;;;;;;5033502;28;21026;-78
2023/05/25 06:14:34;;;;;;;5.13;2.83;;;15.80;63.30;;;;;;5033127;28;20998;-78
2023/05/25 06:17:01;;;;;;;4.13;2.47;;;15.70;63.60;;;;;;5033485;28;20447;-78
2023/05/25 06:19:29;;;;;;;3.53;2.37;;;15.80;63.60;;;;;;5033063;28;20959;-78
2023/05/25 06:21:55;;;;;;;6.00;3.20;;;16.10;63.20;;;;;;5033215;28;20533;-78
2023/05/25 06:24:22;;;;;;;5.27;2.73;;;16.20;62.40;;;;;;5033163;28;20487;-78
2023/05/25 06:26:49;;;;;;;4.10;2.77;;;16.50;62.50;;;;;;5033095;28;20956;-78
2023/05/25 06:29:16;;;;;;;4.33;2.30;;;16.60;62.60;;;;;;5033263;28;20443;-78
2023/05/25 06:31:43;;;;;;;4.10;3.00;;;16.60;62.00;;;;;;5033228;28;20474;-78
2023/05/25 06:34:09;;;;;;;4.90;2.53;;;16.50;62.00;;;;;;5033362;28;20501;-79
2023/05/25 06:36:38;;;;;;;3.23;2.60;;;16.50;62.70;;;;;;5033209;28;20542;-78
2023/05/25 06:39:04;;;;;;;5.33;2.60;;;16.50;61.90;;;;;;5033207;28;20447;-78
2023/05/25 06:41:32;;;;;;;3.10;2.43;;;16.60;62.30;;;;;;5032861;28;21034;-78
2023/05/25 06:43:58;;;;;;;6.10;2.83;;;16.60;62.00;;;;;;5032719;28;20799;-78
2023/05/25 06:46:25;;;;;;;4.90;2.57;;;16.50;62.20;;;;;;5032781;28;20952;-78
2023/05/25 06:48:52;;;;;;;3.70;2.87;;;16.70;61.40;;;;;;5032777;28;20944;-78
2023/05/25 06:51:18;;;;;;;4.33;2.90;;;16.70;61.60;;;;;;5032675;28;20850;-78
2023/05/25 06:53:46;;;;;;;3.43;2.60;;;16.70;62.00;;;;;;5033082;28;20447;-78
2023/05/25 06:56:13;;;;;;;4.33;2.70;;;17.00;61.80;;;;;;5033076;28;20509;-78
2023/05/25 06:58:40;;;;;;;3.43;2.57;;;17.10;61.80;;;;;;5033001;28;20866;-78
2023/05/25 07:01:06;;;;;;;4.77;3.40;;;17.30;61.70;;;;;;5032816;28;20533;-78
2023/05/25 07:03:33;;;;;;;4.90;2.90;;;17.50;60.70;;;;;;5033029;28;20427;-78
2023/05/25 07:06:00;;;;;;;5.37;3.30;;;17.50;60.50;;;;;;5032894;28;20600;-78
2023/05/25 07:08:26;;;;;;;4.00;3.07;;;17.20;61.20;;;;;;5033049;28;20452;-78
2023/05/25 07:10:54;;;;;;;4.63;2.70;;;16.90;61.60;;;;;;5032738;28;20467;-78
2023/05/25 07:13:21;;;;;;;6.17;3.50;;;16.80;62.00;;;;;;5032573;28;20949;-78
2023/05/25 07:15:48;;;;;;;5.60;3.63;;;16.80;63.40;;;;;;5032580;28;20991;-78
2023/05/25 07:18:15;;;;;;;4.37;3.10;;;16.90;63.60;;;;;;5032539;28;21075;-78
2023/05/25 07:20:42;;;;;;;5.03;3.03;;;16.90;62.60;;;;;;5035817;28;21008;-78
2023/05/25 07:23:09;;;;;;;5.77;3.77;;;17.00;63.30;;;;;;5036491;28;20455;-78
2023/05/25 07:25:37;;;;;;;5.20;3.23;;;16.90;62.80;;;;;;5036434;28;20486;-78
2023/05/25 07:28:05;;;;;;;3.30;2.83;;;16.70;63.00;;;;;;5036827;28;20475;-77
2023/05/25 07:30:32;;;;;;;5.20;2.90;;;16.70;64.20;;;;;;5036520;28;20452;-78
2023/05/25 07:32:59;;;;;;;4.60;3.43;;;16.60;63.20;;;;;;5036472;28;20501;-78
2023/05/25 07:35:25;;;;;;;4.60;3.10;;;16.40;64.10;;;;;;5036700;28;20439;-78
2023/05/25 07:37:59;;;;;;;5.07;3.20;;;16.20;64.60;;;;;;5036612;28;20489;-77
2023/05/25 07:40:26;;;;;;;5.13;3.40;;;16.10;65.00;;;;;;5036341;28;20439;-78
2023/05/25 07:42:53;;;;;;;4.70;3.03;;;16.00;65.60;;;;;;5036337;28;20448;-78
2023/05/25 07:45:22;;;;;;;6.13;3.00;;;16.00;65.30;;;;;;5036932;28;20486;-78
2023/05/25 07:47:49;;;;;;;4.87;2.90;;;16.00;65.70;;;;;;5038239;28;20963;-78
2023/05/25 07:50:15;;;;;;;5.73;2.93;;;16.00;66.40;;;;;;5038450;28;20447;-78
2023/05/25 07:52:42;;;;;;;4.00;3.20;;;16.10;66.00;;;;;;5041765;28;20471;-79
2023/05/25 07:55:10;;;;;;;4.80;3.90;;;16.10;66.10;;;;;;5038786;28;20452;-77
2023/05/25 07:57:37;;;;;;;4.80;3.40;;;16.20;67.00;;;;;;5036172;28;20455;-77
2023/05/25 08:00:06;;;;;;;4.27;3.03;;;16.40;66.10;;;;;;5036832;28;20459;-77
2023/05/25 08:02:34;;;;;;;3.90;2.93;;;16.60;66.60;;;;;;5035514;28;20519;-79
2023/05/25 08:05:04;;;;;;;4.00;3.23;;;16.80;66.10;;;;;;5035881;28;20487;-78
2023/05/25 08:07:31;;;;;;;5.97;3.83;;;16.70;65.70;;;;;;5035726;28;20474;-78
2023/05/25 08:09:58;;;;;;;5.10;3.80;;;16.90;65.20;;;;;;5035882;28;20593;-79
2023/05/25 08:12:25;;;;;;;5.33;3.80;;;16.90;65.90;;;;;;5035261;28;20541;-78
2023/05/25 08:14:52;;;;;;;3.80;2.97;;;16.90;64.80;;;;;;5035713;28;20451;-78
2023/05/25 08:17:19;;;;;;;3.80;3.20;;;17.00;64.80;;;;;;5035718;28;20525;-78
2023/05/25 08:19:47;;;;;;;6.17;3.40;;;17.10;65.30;;;;;;5035560;28;20510;-78
2023/05/25 08:22:14;;;;;;;6.10;3.20;;;17.50;64.20;;;;;;5035095;28;21038;-78
2023/05/25 08:24:41;;;;;;;4.23;3.20;;;17.70;64.90;;;;;;5035699;28;20459;-78
2023/05/25 08:27:07;;;;;;;3.33;3.00;;;17.50;63.90;;;;;;5035459;28;20473;-78
2023/05/25 08:29:34;;;;;;;4.13;3.50;;;17.70;64.90;;;;;;5035418;28;20498;-78
2023/05/25 08:32:01;;;;;;;3.47;3.03;;;17.90;66.20;;;;;;5034948;28;20518;-78
2023/05/25 08:34:28;;;;;;;4.70;3.10;;;18.00;63.90;;;;;;5035350;28;20509;-79
2023/05/25 08:36:57;;;;;;;4.50;3.03;;;18.00;65.20;;;;;;5035320;28;20483;-76
2023/05/25 08:39:24;;;;;;;5.33;3.33;;;18.20;64.40;;;;;;5035251;28;20447;-78
2023/05/25 08:41:51;;;;;;;6.23;3.07;;;18.40;64.00;;;;;;5034756;28;21003;-79
2023/05/25 08:44:18;;;;;;;3.27;2.50;;;18.80;63.20;;;;;;5035115;28;20448;-78
2023/05/25 08:46:47;;;;;;;3.67;2.93;;;18.70;62.90;;;;;;5034823;28;20537;-78
2023/05/25 08:49:15;;;;;;;5.73;3.03;;;18.80;62.90;;;;;;5034884;28;20447;-78
2023/05/25 08:51:46;;;;;;;4.27;3.50;;;19.00;63.40;;;;;;5034951;28;20467;-78
2023/05/25 08:54:18;;;;;;;4.60;3.70;;;19.00;63.80;;;;;;5034722;28;20803;-79
2023/05/25 08:56:49;;;;;;;4.93;3.73;;;19.10;62.60;;;;;;5034913;28;20427;-79
2023/05/25 08:59:30;;;;;;;3.77;3.07;;;18.90;62.80;;;;;;5035161;28;20420;-79
2023/05/25 09:02:10;;;;;;;4.40;2.90;;;19.10;63.50;;;;;;5034517;28;20482;-77
2023/05/25 09:04:37;;;;;;;6.20;3.63;;;19.40;61.50;;;;;;5034672;28;20490;-78
2023/05/25 09:07:04;;;;;;;4.50;3.43;;;19.60;61.30;;;;;;5034609;28;20483;-79
2023/05/25 09:09:35;;;;;;;4.43;3.10;;;19.60;61.90;;;;;;5034701;28;20494;-79
2023/05/25 09:12:05;;;;;;;5.13;2.97;;;19.30;62.50;;;;;;5035028;28;20475;-78
2023/05/25 09:14:32;;;;;;;4.60;3.43;;;19.50;61.70;;;;;;5034290;28;20514;-78
2023/05/25 09:17:00;;;;;;;4.23;3.27;;;19.40;62.80;;;;;;5034575;28;20439;-78
2023/05/25 09:19:27;;;;;;;4.90;3.23;;;19.50;61.90;;;;;;5034677;28;20455;-78
2023/05/25 09:21:53;;;;;;;6.53;3.13;;;19.60;62.00;;;;;;5034084;28;21050;-78
2023/05/25 09:24:21;;;;;;;4.97;3.47;;;19.90;61.40;;;;;;5034361;28;20513;-78
2023/05/25 09:26:49;;;;;;;3.47;2.87;;;20.00;61.60;;;;;;5034186;28;20487;-78
2023/05/25 09:29:16;;;;;;;7.03;3.33;;;20.00;62.40;;;;;;5034325;28;20447;-79
2023/05/25 09:31:43;;;;;;;6.13;4.13;;;19.90;61.20;;;;;;5034090;28;20467;-79
2023/05/25 09:34:13;;;;;;;4.17;3.03;;;20.00;61.10;;;;;;5034302;28;20505;-79
2023/05/25 09:36:41;;;;;;;6.10;3.23;;;20.10;61.20;;;;;;5034107;28;20448;-78
2023/05/25 09:39:09;;;;;;;4.80;3.60;;;20.10;60.10;;;;;;5034020;28;20450;-79
2023/05/25 09:41:35;;;;;;;4.90;3.30;;;20.30;61.20;;;;;;5034167;28;20517;-78
2023/05/25 09:44:04;;;;;;;4.63;2.90;;;20.30;60.50;;;;;;5032942;28;20866;-78
2023/05/25 09:46:35;;;;;;;7.73;4.10;;;20.30;60.50;;;;;;5033854;28;20482;-78
2023/05/25 09:49:02;;;;;;;4.70;3.00;;;20.30;60.20;;;;;;5033895;28;20486;-78
2023/05/25 09:51:31;;;;;;;4.67;3.37;;;20.20;60.40;;;;;;5033382;28;20828;-78
2023/05/25 09:53:59;;;;;;;5.00;3.43;;;20.20;60.70;;;;;;5033810;28;20451;-78
2023/05/25 09:56:26;;;;;;;5.17;3.60;;;20.30;61.30;;;;;;5033830;28;20451;-78
2023/05/25 09:58:53;;;;;;;4.07;3.67;;;20.50;61.60;;;;;;5033960;28;20481;-78
2023/05/25 10:01:21;;;;;;;4.93;3.57;;;20.50;61.30;;;;;;5033522;28;20537;-78
2023/05/25 10:03:49;;;;;;;4.07;2.87;;;20.40;60.80;;;;;;5033608;28;20452;-78
2023/05/25 10:06:17;;;;;;;4.40;3.10;;;20.40;60.70;;;;;;5034139;28;20575;-78
2023/05/25 10:08:45;;;;;;;3.50;3.17;;;20.30;61.40;;;;;;5033201;28;21014;-79
2023/05/25 10:11:14;;;;;;;3.87;3.33;;;20.60;60.50;;;;;;5033259;28;20975;-78
2023/05/25 10:13:43;;;;;;;4.43;3.43;;;20.90;61.90;;;;;;5033499;28;20478;-78
2023/05/25 10:16:16;;;;;;;3.30;2.77;;;21.10;60.50;;;;;;5034594;28;20500;-78
2023/05/25 10:18:48;;;;;;;3.63;3.20;;;21.00;60.30;;;;;;5033443;28;20796;-79
2023/05/25 10:21:16;;;;;;;3.10;2.77;;;20.90;59.50;;;;;;5033503;28;20514;-78
2023/05/25 10:23:46;;;;;;;3.67;2.93;;;20.80;61.40;;;;;;5033305;28;20459;-79
2023/05/25 10:26:18;;;;;;;4.40;3.23;;;21.00;61.00;;;;;;5033370;28;20463;-79
2023/05/25 10:28:47;;;;;;;5.73;3.40;;;21.00;61.30;;;;;;5033463;28;20489;-79
2023/05/25 10:31:16;;;;;;;3.70;2.97;;;21.10;60.00;;;;;;5033462;28;20463;-79
2023/05/25 10:33:44;;;;;;;4.80;3.63;;;21.30;61.20;;;;;;5033413;28;20443;-79
2023/05/25 10:36:13;;;;;;;3.27;2.77;;;21.70;59.50;;;;;;5033306;28;20443;-78
2023/05/25 10:38:40;;;;;;;4.07;3.20;;;21.90;58.20;;;;;;5033282;28;20443;-79
2023/05/25 10:41:09;;;;;;;4.50;2.67;;;22.00;58.50;;;;;;5033299;28;20559;-79
2023/05/25 10:43:37;;;;;;;3.77;2.77;;;21.70;59.40;;;;;;5033307;28;20554;-79
2023/05/25 10:46:05;;;;;;;4.33;3.20;;;21.60;58.30;;;;;;5039694;28;20551;-79
2023/05/25 10:48:37;;;;;;;3.70;2.90;;;21.40;59.90;;;;;;5035292;28;20439;-79
2023/05/25 10:51:05;;;;;;;3.60;2.70;;;21.20;59.80;;;;;;5034430;28;20550;-79
2023/05/25 10:53:32;;;;;;;4.70;2.40;;;21.10;59.80;;;;;;5033906;28;20447;-79
2023/05/25 10:56:03;;;;;;;3.87;3.03;;;21.10;60.20;;;;;;5037685;28;20439;-79
2023/05/25 10:58:31;;;;;;;5.47;3.10;;;20.80;61.10;;;;;;5037985;28;20818;-78
2023/05/25 11:00:59;;;;;;;3.30;2.73;;;21.00;62.30;;;;;;5037193;28;20482;-79
2023/05/25 11:03:56;;;;;;;3.80;3.20;;;21.60;61.10;;;;;;5037650;28;20456;-78
2023/05/25 11:06:58;;;;;;;3.57;2.87;;;22.00;58.60;;;;;;5038268;28;20463;-78
2023/05/25 11:09:26;;;;;;;4.13;2.97;;;21.90;59.00;;;;;;5036678;28;20933;-79
2023/05/25 11:12:04;;;;;;;3.50;3.00;;;21.70;59.70;;;;;;5036868;28;20470;-79
2023/05/25 11:14:34;;;;;;;4.00;3.10;;;21.70;59.20;;;;;;5036589;28;20824;-79
2023/05/25 11:17:06;;;;;;;3.83;2.80;;;21.90;59.20;;;;;;5036996;28;20436;-79
2023/05/25 11:19:39;;;;;;;3.40;3.10;;;21.80;59.50;;;;;;5037021;28;20455;-79
2023/05/25 11:22:15;;;;;;;2.80;2.53;;;21.90;58.90;;;;;;5036870;28;20475;-79
2023/05/25 11:24:43;;;;;;;3.20;2.33;;;21.80;59.50;;;;;;5036551;28;20830;-78
2023/05/25 11:27:11;;;;;;;3.90;3.33;;;21.80;60.40;;;;;;5036568;28;20487;-79
2023/05/25 11:29:38;;;;;;;3.97;3.57;;;21.80;58.90;;;;;;5036649;28;20451;-79
2023/05/25 11:32:11;;;;;;;3.43;2.80;;;22.10;59.30;;;;;;5036721;28;20471;-78
2023/05/25 11:34:40;;;;;;;3.37;2.93;;;22.10;59.40;;;;;;5036571;28;20440;-76
2023/05/25 11:37:08;;;;;;;5.63;3.00;;;22.10;58.70;;;;;;5036549;28;20443;-79
2023/05/25 11:39:36;;;;;;;3.20;2.80;;;22.00;58.60;;;;;;5036529;28;20447;-79
2023/05/25 11:42:05;;;;;;;3.13;2.27;;;21.70;59.40;;;;;;5036097;28;20471;-79
2023/05/25 11:44:33;;;;;;;4.00;2.70;;;21.50;59.30;;;;;;5036450;28;20501;-79
2023/05/25 11:47:03;;;;;;;3.80;2.77;;;21.50;61.10;;;;;;5036472;28;20479;-78
2023/05/25 11:49:30;;;;;;;3.17;2.10;;;21.70;59.80;;;;;;5037438;28;20454;-78
2023/05/25 11:51:57;;;;;;;3.00;2.63;;;21.70;60.20;;;;;;5036472;28;20468;-79
2023/05/25 11:54:25;;;;;;;3.07;2.47;;;21.80;59.10;;;;;;5036211;28;20451;-79
2023/05/25 11:56:57;;;;;;;3.70;2.63;;;21.50;59.90;;;;;;5036497;28;20455;-79
2023/05/25 11:59:24;;;;;;;4.70;2.30;;;21.60;59.70;;;;;;5036364;28;20931;-79
2023/05/25 12:01:59;;;;;;;3.70;2.43;;;21.50;59.70;;;;;;5035790;28;20483;-79
2023/05/25 12:04:25;;;;;;;2.90;2.07;;;21.50;59.70;;;;;;5036054;28;20493;-79
2023/05/25 12:06:52;;;;;;;4.20;2.67;;;21.60;60.90;;;;;;5035042;28;20889;-79
2023/05/25 12:09:21;;;;;;;2.93;2.40;;;21.70;59.00;;;;;;5049290;28;20446;-79
2023/05/25 12:11:48;;;;;;;3.13;2.30;;;21.80;60.30;;;;;;5049850;28;20521;-79
2023/05/25 12:14:16;;;;;;;3.10;2.57;;;21.80;59.10;;;;;;5049433;28;20455;-79
2023/05/25 12:16:44;;;;;;;3.00;2.50;;;21.80;59.70;;;;;;5044011;28;20448;-79
2023/05/25 12:19:11;;;;;;;3.10;2.40;;;21.80;59.10;;;;;;5036193;28;20501;-79
2023/05/25 12:21:39;;;;;;;3.10;2.40;;;21.90;59.10;;;;;;5035935;28;20471;-78
2023/05/25 12:24:06;;;;;;;3.10;2.67;;;22.10;58.90;;;;;;5035748;28;20451;-78
2023/05/25 12:26:33;;;;;;;3.20;2.67;;;22.20;58.60;;;;;;5036347;28;20832;-79
2023/05/25 12:29:01;;;;;;;4.37;2.50;;;22.30;57.90;;;;;;5035829;28;20501;-79
2023/05/25 12:31:30;;;;;;;3.97;2.90;;;22.40;58.70;;;;;;5035614;28;20472;-79
2023/05/25 12:34:07;;;;;;;3.80;2.40;;;22.60;57.60;;;;;;5035511;28;20501;-79
2023/05/25 12:36:43;;;;;;;3.90;2.57;;;22.70;57.60;;;;;;5035741;28;20497;-79
2023/05/25 12:39:11;;;;;;;2.63;2.20;;;22.80;58.80;;;;;;5035539;28;20850;-79
2023/05/25 12:41:51;;;;;;;3.50;2.60;;;22.90;58.10;;;;;;5035610;28;20549;-78
2023/05/25 12:44:24;;;;;;;4.13;2.80;;;23.00;57.40;;;;;;5035204;28;20509;-79
2023/05/25 12:46:52;;;;;;;2.70;2.33;;;23.20;57.00;;;;;;5035164;28;20475;-79
2023/05/25 12:49:28;;;;;;;3.50;2.43;;;23.50;56.30;;;;;;5035305;28;20447;-79
2023/05/25 12:51:55;;;;;;;4.53;2.70;;;23.60;56.40;;;;;;5035252;28;20495;-79
2023/05/25 12:54:42;;;;;;;3.23;2.80;;;23.60;55.10;;;;;;5035704;28;20502;-79
2023/05/25 12:57:11;;;;;;;3.43;2.80;;;23.50;55.70;;;;;;5035462;28;20820;-79
2023/05/25 12:59:39;;;;;;;3.20;2.60;;;23.10;55.50;;;;;;5035163;28;20494;-79
2023/05/25 13:02:07;;;;;;;3.10;2.50;;;22.90;56.80;;;;;;5034781;28;20499;-79
2023/05/25 13:04:35;;;;;;;5.03;2.97;;;23.00;56.30;;;;;;5035234;28;20454;-79
2023/05/25 13:07:02;;;;;;;3.57;2.50;;;23.20;56.50;;;;;;5034795;28;20482;-79
2023/05/25 13:09:29;;;;;;;5.40;3.10;;;23.50;55.60;;;;;;5034849;28;20453;-79
2023/05/25 13:11:57;;;;;;;3.80;2.93;;;23.70;55.50;;;;;;5034502;28;21034;-79
2023/05/25 13:14:25;;;;;;;4.20;3.40;;;23.90;55.30;;;;;;5036005;28;20506;-79
2023/05/25 13:16:52;;;;;;;6.97;3.27;;;23.50;54.70;;;;;;5034494;28;20941;-79
2023/05/25 13:19:23;;;;;;;3.27;2.80;;;23.40;54.50;;;;;;5035729;28;20443;-79
2023/05/25 13:21:50;;;;;;;4.67;3.10;;;23.20;55.40;;;;;;5034755;28;21030;-79
2023/05/25 13:24:18;;;;;;;3.37;2.30;;;23.10;56.10;;;;;;5034585;28;20475;-78
2023/05/25 13:26:45;;;;;;;6.30;3.30;;;23.30;57.10;;;;;;5034719;28;20515;-79
2023/05/25 13:29:12;;;;;;;3.90;2.70;;;23.30;55.90;;;;;;5034693;28;21055;-79
2023/05/25 13:31:39;;;;;;;4.53;2.53;;;23.20;56.90;;;;;;5034545;28;21050;-79
2023/05/25 13:34:06;;;;;;;3.93;3.00;;;23.20;55.60;;;;;;5034683;28;20451;-79
2023/05/25 13:36:34;;;;;;;4.30;2.67;;;23.40;56.30;;;;;;5034616;28;20455;-79
2023/05/25 13:39:03;;;;;;;3.57;2.83;;;24.00;55.40;;;;;;5034428;28;20483;-79
2023/05/25 13:41:30;;;;;;;4.70;2.97;;;24.10;54.50;;;;;;5034510;28;20498;-79
2023/05/25 13:43:57;;;;;;;3.57;2.83;;;24.10;55.20;;;;;;5033951;28;20451;-79
2023/05/25 13:46:23;;;;;;;3.87;3.00;;;24.20;54.50;;;;;;5034139;28;20454;-79
2023/05/25 13:48:50;;;;;;;3.20;2.57;;;24.30;53.40;;;;;;5033907;28;20486;-79
2023/05/25 13:51:17;;;;;;;3.00;2.40;;;24.50;54.20;;;;;;5034160;28;20472;-79
2023/05/25 13:53:47;;;;;;;4.90;3.00;;;24.60;54.40;;;;;;5034254;28;20447;-79
2023/05/25 13:56:14;;;;;;;2.93;2.53;;;24.70;53.50;;;;;;5034218;28;20436;-79
2023/05/25 13:58:41;;;;;;;5.73;3.17;;;24.70;53.80;;;;;;5034181;28;20447;-80
2023/05/25 14:01:07;;;;;;;6.57;2.90;;;24.50;54.10;;;;;;5033227;28;20479;-79
2023/05/25 14:03:35;;;;;;;4.90;3.27;;;24.60;54.20;;;;;;5033731;28;20436;-79
2023/05/25 14:06:01;;;;;;;4.00;2.50;;;24.80;52.50;;;;;;5033570;28;20444;-79
2023/05/25 14:08:29;;;;;;;4.90;3.07;;;24.90;53.20;;;;;;5033312;28;20526;-79
2023/05/25 14:10:57;;;;;;;3.53;2.57;;;25.00;52.60;;;;;;5033254;28;20570;-79
2023/05/25 14:13:24;;;;;;;4.67;2.53;;;25.00;52.40;;;;;;5033664;28;20502;-79
2023/05/25 14:15:51;;;;;;;3.87;2.87;;;24.60;53.00;;;;;;5033460;28;20444;-79
2023/05/25 14:18:18;;;;;;;3.00;2.57;;;24.80;53.00;;;;;;5033520;28;20443;-79
2023/05/25 14:20:44;;;;;;;4.47;2.50;;;24.70;53.90;;;;;;5033778;28;20467;-80
2023/05/25 14:23:11;;;;;;;3.17;2.40;;;24.40;53.10;;;;;;5033677;28;20448;-79
2023/05/25 14:25:37;;;;;;;4.27;2.70;;;24.40;54.60;;;;;;5033454;28;20574;-79
2023/05/25 14:28:05;;;;;;;4.30;3.10;;;24.70;53.90;;;;;;5033222;28;20826;-79
2023/05/25 14:30:32;;;;;;;4.60;3.00;;;24.80;53.10;;;;;;5032628;28;20447;-79
2023/05/25 14:32:59;;;;;;;4.23;2.90;;;24.50;52.40;;;;;;5032999;28;20443;-78
2023/05/25 14:35:25;;;;;;;3.37;2.50;;;24.30;54.90;;;;;;5032922;28;20481;-79
2023/05/25 14:37:52;;;;;;;3.80;2.70;;;24.80;54.10;;;;;;5032821;28;20505;-78
2023/05/25 14:40:20;;;;;;;4.47;2.70;;;25.00;53.10;;;;;;5033252;28;20451;-79
2023/05/25 14:42:47;;;;;;;5.00;2.70;;;25.10;52.70;;;;;;5033188;28;20458;-78
2023/05/25 14:45:17;;;;;;;4.10;2.40;;;24.90;52.80;;;;;;5033303;28;20470;-79
2023/05/25 14:47:44;;;;;;;6.80;2.87;;;24.50;52.70;;;;;;5033117;28;20478;-79
2023/05/25 14:50:11;;;;;;;4.33;2.57;;;24.40;52.80;;;;;;5033161;28;20454;-79
2023/05/25 14:52:37;;;;;;;3.63;2.20;;;24.40;53.30;;;;;;5032718;28;20984;-78
2023/05/25 14:55:05;;;;;;;2.60;2.37;;;24.60;53.70;;;;;;5033060;28;20452;-78
2023/05/25 14:57:31;;;;;;;3.80;3.10;;;24.70;53.10;;;;;;5032755;28;20940;-79
2023/05/25 14:59:58;;;;;;;4.47;2.70;;;24.80;52.90;;;;;;5033181;28;20456;-79
2023/05/25 15:02:26;;;;;;;2.50;2.20;;;25.00;53.20;;;;;;5032822;28;20483;-79
2023/05/25 15:04:53;;;;;;;3.43;2.40;;;25.00;52.60;;;;;;5032953;28;20451;-79
2023/05/25 15:07:20;;;;;;;3.73;2.37;;;25.10;52.10;;;;;;5032799;28;20493;-79
2023/05/25 15:09:47;;;;;;;4.17;2.87;;;25.10;52.30;;;;;;5032941;28;20538;-79
2023/05/25 15:12:14;;;;;;;3.40;2.63;;;25.20;52.30;;;;;;5032850;28;20472;-79
2023/05/25 15:14:41;;;;;;;3.23;2.30;;;25.20;52.30;;;;;;5032878;28;20542;-79
2023/05/25 15:17:08;;;;;;;2.87;2.57;;;25.30;51.70;;;;;;5032599;28;20981;-79
2023/05/25 15:19:36;;;;;;;4.87;2.67;;;25.20;51.80;;;;;;5032808;28;20455;-79
2023/05/25 15:22:03;;;;;;;3.33;2.57;;;25.20;52.20;;;;;;5032861;28;20471;-79
2023/05/25 15:24:30;;;;;;;6.27;2.83;;;25.40;51.50;;;;;;5034481;28;20443;-79
2023/05/25 15:26:56;;;;;;;2.53;2.30;;;25.00;52.30;;;;;;5033583;28;20494;-79
2023/05/25 15:29:23;;;;;;;3.20;2.27;;;24.70;52.70;;;;;;5033196;28;20448;-79
2023/05/25 15:31:53;;;;;;;3.23;2.37;;;24.80;52.60;;;;;;5033127;28;21003;-78
2023/05/25 15:34:20;;;;;;;3.23;2.57;;;25.00;52.90;;;;;;5039327;28;20447;-79
2023/05/25 15:36:48;;;;;;;3.20;2.40;;;25.10;52.30;;;;;;5033085;28;20447;-78
2023/05/25 15:39:15;;;;;;;2.83;2.53;;;25.40;52.00;;;;;;5033281;28;20497;-78
2023/05/25 15:41:42;;;;;;;3.03;2.73;;;25.40;51.20;;;;;;5034495;28;20562;-79
2023/05/25 15:44:11;;;;;;;4.87;1.90;;;25.50;51.60;;;;;;5040487;28;20447;-78
2023/05/25 15:46:38;;;;;;;3.67;2.60;;;25.70;51.80;;;;;;5038140;28;20550;-79
2023/05/25 15:49:09;;;;;;;4.60;2.60;;;25.40;51.30;;;;;;5037507;28;20932;-79
2023/05/25 15:51:40;;;;;;;3.60;2.30;;;25.30;51.50;;;;;;5036614;28;20920;-79
2023/05/25 15:54:08;;;;;;;2.43;1.90;;;25.10;52.00;;;;;;5037257;28;20518;-79
2023/05/25 15:56:36;;;;;;;4.20;2.33;;;24.80;52.20;;;;;;5037203;28;20451;-79
2023/05/25 15:59:03;;;;;;;3.70;2.77;;;24.60;52.00;;;;;;5038273;28;20866;-79
2023/05/25 16:01:30;;;;;;;2.63;2.27;;;24.40;52.50;;;;;;5037329;28;20490;-79
2023/05/25 16:03:57;;;;;;;4.97;2.70;;;24.10;53.00;;;;;;5036905;28;20452;-79
2023/05/25 16:06:24;;;;;;;3.07;2.33;;;23.80;53.80;;;;;;5036840;28;20876;-79
2023/05/25 16:08:51;;;;;;;3.53;2.60;;;23.70;54.30;;;;;;5037005;28;20583;-79
2023/05/25 16:11:20;;;;;;;3.83;2.30;;;23.60;54.80;;;;;;5036266;28;20973;-80
2023/05/25 16:13:47;;;;;;;4.10;3.10;;;23.40;54.90;;;;;;5035591;28;20940;-79
2023/05/25 16:16:14;;;;;;;4.63;2.37;;;23.40;54.60;;;;;;5036579;28;20517;-79
2023/05/25 16:18:40;;;;;;;3.07;2.27;;;23.50;55.10;;;;;;5035739;28;20863;-78
2023/05/25 16:21:07;;;;;;;2.53;1.90;;;23.60;54.80;;;;;;5035904;28;20486;-78
2023/05/25 16:23:34;;;;;;;3.50;2.40;;;23.70;54.90;;;;;;5035608;28;20452;-77
2023/05/25 16:26:00;;;;;;;3.17;2.30;;;24.00;53.40;;;;;;5035486;28;20867;-76
2023/05/25 16:28:28;;;;;;;2.43;2.03;;;24.10;54.10;;;;;;5035329;28;20474;-77
2023/05/25 16:30:55;;;;;;;2.73;2.30;;;24.10;54.60;;;;;;5035506;28;20471;-77
2023/05/25 16:33:21;;;;;;;3.27;2.60;;;24.30;54.70;;;;;;5035363;28;20481;-79
2023/05/25 16:35:49;;;;;;;3.50;2.60;;;24.10;53.70;;;;;;5035208;28;20447;-77
2023/05/25 16:38:15;;;;;;;3.13;2.53;;;23.80;54.10;;;;;;5035275;28;20450;-76
2023/05/25 16:40:42;;;;;;;6.27;2.70;;;23.60;54.30;;;;;;5035060;28;20463;-77
2023/05/25 16:43:09;;;;;;;2.77;2.10;;;23.40;54.70;;;;;;5035160;28;20474;-75
2023/05/25 16:45:37;;;;;;;3.63;2.57;;;23.30;55.10;;;;;;5034772;28;20436;-77
2023/05/25 16:48:03;;;;;;;3.67;2.47;;;23.30;54.80;;;;;;5034915;28;20479;-77
2023/05/25 16:50:30;;;;;;;3.60;2.50;;;23.40;54.50;;;;;;5034511;28;21014;-77
2023/05/25 16:52:57;;;;;;;3.77;2.90;;;23.20;55.00;;;;;;5034385;28;20501;-77